Spill The Wine — WDH5509 — position and weather

sailwx.info

Track history (hours):
 
Tides and Currents Weather Stations Pressure Air Temp Water Temp Dewpoint Dewpoint Depression Visibility Wind Speed Wind Dir Waves Ship Positions

Spill The Wine

Owner: Miller, Michael M, Key Largo, FL. More information available from US FCC via Universal Licensing System and Coast Guard Vessel Documentation Center.

Last reported at 2017-Nov-18 17:02 UTC. Time now 2017-Dec-14 13:18 UTC.
Position N 25°41' W 080°07'.
Warning: this ship's position is 25 days out of date.

Length 7 m.

Type: Pleasure craft. MMSI: 367628630.

Date/timePositionNaut miles runAvg speedWind from/ knotsBaromVisibWave heightAir tempDewpointWater temp
2017-Nov-18 17:02N 25°41' W 080°07'1 7.2
2017-Nov-18 16:57N 25°41' W 080°07'3 6.9
2017-Nov-18 16:29N 25°44' W 080°06'4 7.4
2017-Nov-18 16:00N 25°48' W 080°05'3 7.0
2017-Nov-18 15:31N 25°51' W 080°05'3 6.5
2017-Nov-18 15:01N 25°54' W 080°04'4 7.1
2017-Nov-18 14:30N 25°58' W 080°04'4 8.0
2017-Nov-18 14:00N 26°02' W 080°04'4 8.1
2017-Nov-18 13:30N 26°06' W 080°03'32 6.9
2017-Nov-18 08:55N 26°38' W 080°01'18 6.7
2017-Nov-18 06:15N 26°56' W 080°01'2 6.3
2017-Nov-18 06:00N 26°57' W 080°01'  
Track history (hours):
 
Tides and Currents Weather Stations Pressure Air Temp Water Temp Dewpoint Dewpoint Depression Visibility Wind Speed Wind Dir Waves Ship Positions

Spill The Wine

Owner: Miller, Michael M, Key Largo, FL. More information available from US FCC via Universal Licensing System and Coast Guard Vessel Documentation Center.

Last reported at 2017-Nov-18 17:02 UTC. Time now 2017-Dec-14 13:18 UTC.
Position N 25°41' W 080°07'.
Warning: this ship's position is 25 days out of date.

Length 7 m.

Type: Pleasure craft. MMSI: 367628630.

Date/timePositionNaut miles runAvg speedWind from/ knotsBaromVisibWave heightAir tempDewpointWater temp
2017-Nov-18 17:02N 25°41' W 080°07'1 7.2
2017-Nov-18 16:57N 25°41' W 080°07'3 6.9
2017-Nov-18 16:29N 25°44' W 080°06'4 7.4
2017-Nov-18 16:00N 25°48' W 080°05'3 7.0
2017-Nov-18 15:31N 25°51' W 080°05'3 6.5
2017-Nov-18 15:01N 25°54' W 080°04'4 7.1
2017-Nov-18 14:30N 25°58' W 080°04'4 8.0
2017-Nov-18 14:00N 26°02' W 080°04'4 8.1
2017-Nov-18 13:30N 26°06' W 080°03'32 6.9
2017-Nov-18 08:55N 26°38' W 080°01'18 6.7
2017-Nov-18 06:15N 26°56' W 080°01'2 6.3
2017-Nov-18 06:00N 26°57' W 080°01'  

Dump ship's entire track history